createdAt,value
2018-09-26T00:00:02.481Z,9.47
2018-09-26T00:02:35.094Z,10.00
2018-09-26T00:05:04.231Z,9.67
2018-09-26T00:07:34.075Z,9.10
2018-09-26T00:10:03.093Z,9.77
2018-09-26T00:12:32.063Z,9.43
2018-09-26T00:15:01.024Z,9.70
2018-09-26T00:17:30.382Z,9.30
2018-09-26T00:19:59.916Z,10.20
2018-09-26T00:22:30.089Z,9.20
2018-09-26T00:24:59.567Z,10.00
2018-09-26T00:27:29.082Z,9.40
2018-09-26T00:29:58.651Z,8.97
2018-09-26T00:32:28.465Z,10.07
2018-09-26T00:34:58.164Z,9.47
2018-09-26T00:37:27.463Z,9.57
2018-09-26T00:39:56.180Z,9.40
2018-09-26T00:42:25.028Z,10.60
2018-09-26T00:44:54.167Z,9.40
2018-09-26T00:47:22.979Z,9.27
2018-09-26T00:49:52.005Z,8.83
2018-09-26T00:52:20.855Z,8.60
2018-09-26T00:54:49.929Z,8.77
2018-09-26T00:57:20.470Z,8.83
2018-09-26T00:59:50.533Z,9.00
2018-09-26T01:02:20.284Z,9.37
2018-09-26T01:04:50.493Z,9.30
2018-09-26T01:07:19.915Z,9.33
2018-09-26T01:09:49.933Z,8.97
2018-09-26T01:12:19.746Z,8.53
2018-09-26T01:14:48.710Z,9.40
2018-09-26T01:17:18.458Z,9.00
2018-09-26T01:19:47.761Z,9.00
2018-09-26T01:22:17.554Z,8.77
2018-09-26T01:24:47.171Z,8.60
2018-09-26T01:27:15.940Z,9.20
2018-09-26T01:29:44.679Z,8.93
2018-09-26T01:32:13.554Z,8.67
2018-09-26T01:34:42.902Z,8.60
2018-09-26T01:37:11.957Z,8.90
2018-09-26T01:39:41.322Z,9.70
2018-09-26T01:42:10.149Z,9.03
2018-09-26T01:44:39.229Z,9.00
2018-09-26T01:47:08.033Z,8.70
2018-09-26T01:49:37.110Z,8.70
2018-09-26T01:52:05.886Z,8.60
2018-09-26T01:54:34.578Z,8.63
2018-09-26T01:57:03.884Z,9.43
2018-09-26T01:59:33.223Z,9.07
2018-09-26T02:02:02.365Z,9.50
2018-09-26T02:04:32.379Z,8.80
2018-09-26T02:07:01.746Z,8.80
2018-09-26T02:09:30.492Z,9.37
2018-09-26T02:11:59.661Z,9.30
2018-09-26T02:14:28.433Z,8.83
2018-09-26T02:16:57.222Z,8.77
2018-09-26T02:19:26.025Z,8.70
2018-09-26T02:21:54.800Z,9.00
2018-09-26T02:24:23.797Z,8.43
2018-09-26T02:26:53.515Z,8.63
2018-09-26T02:29:23.234Z,8.60
2018-09-26T02:31:52.923Z,8.90
2018-09-26T02:34:23.348Z,8.67
2018-09-26T02:36:53.278Z,8.60
2018-09-26T02:39:23.119Z,8.90
2018-09-26T02:41:52.171Z,9.20
2018-09-26T02:44:20.941Z,8.97
2018-09-26T02:46:51.694Z,9.23
2018-09-26T02:49:21.510Z,8.70
2018-09-26T02:51:50.306Z,8.70
2018-09-26T02:54:19.274Z,8.80
2018-09-26T02:56:48.499Z,9.00
2018-09-26T02:59:17.395Z,8.57
2018-09-26T03:01:46.176Z,8.60
2018-09-26T03:04:15.070Z,9.07
2018-09-26T03:06:43.851Z,9.17
2018-09-26T03:09:12.970Z,9.07
2018-09-26T03:11:41.843Z,9.33
2018-09-26T03:14:10.638Z,8.80
2018-09-26T03:16:39.627Z,9.53
2018-09-26T03:19:09.378Z,8.83
2018-09-26T03:21:38.895Z,8.90
2018-09-26T03:24:08.729Z,8.90
2018-09-26T03:26:38.177Z,9.30
2018-09-26T03:29:08.480Z,8.97
2018-09-26T03:31:37.607Z,8.60
2018-09-26T03:34:07.163Z,9.40
2018-09-26T03:36:36.907Z,9.70
2018-09-26T03:39:08.200Z,9.00
2018-09-26T03:41:38.367Z,9.07
2018-09-26T03:44:07.565Z,8.87
2018-09-26T03:46:36.938Z,8.70
2018-09-26T03:49:06.687Z,8.90
2018-09-26T03:51:36.465Z,9.50
2018-09-26T03:54:05.691Z,9.03
2018-09-26T03:56:36.121Z,8.90
2018-09-26T03:59:05.388Z,8.20
2018-09-26T04:01:35.735Z,8.97
2018-09-26T04:04:05.902Z,9.07
2018-09-26T04:06:35.175Z,9.80
2018-09-26T04:09:04.717Z,9.47
2018-09-26T04:11:33.856Z,10.40
2018-09-26T04:14:03.777Z,11.40
2018-09-26T04:16:32.663Z,10.30
2018-09-26T04:19:01.538Z,10.40
2018-09-26T04:21:34.510Z,11.50
2018-09-26T04:24:03.603Z,11.47
2018-09-26T04:26:32.666Z,11.30
2018-09-26T04:29:01.812Z,12.00
2018-09-26T04:31:31.502Z,11.93
2018-09-26T04:34:01.687Z,11.53
2018-09-26T04:36:31.226Z,11.27
2018-09-26T04:39:00.780Z,11.90
2018-09-26T04:41:30.804Z,11.50
2018-09-26T04:44:00.702Z,11.40
2018-09-26T04:46:30.428Z,11.30
2018-09-26T04:49:00.825Z,11.77
2018-09-26T04:51:30.597Z,11.77
2018-09-26T04:54:00.060Z,11.60
2018-09-26T04:56:29.217Z,11.40
2018-09-26T04:58:58.287Z,10.80
2018-09-26T05:01:27.489Z,11.07
2018-09-26T05:03:56.336Z,11.47
2018-09-26T05:06:25.337Z,11.03
2018-09-26T05:08:54.118Z,11.23
2018-09-26T05:11:23.139Z,10.70
2018-09-26T05:13:52.102Z,11.73
2018-09-26T05:16:24.359Z,11.30
2018-09-26T05:19:01.133Z,10.47
2018-09-26T05:21:35.353Z,10.50
2018-09-26T05:24:04.710Z,10.80
2018-09-26T05:26:33.767Z,10.80
2018-09-26T05:29:02.664Z,10.53
2018-09-26T05:31:31.909Z,10.80
2018-09-26T05:34:01.303Z,11.50
2018-09-26T05:36:30.180Z,10.23
2018-09-26T05:38:59.306Z,10.83
2018-09-26T05:41:28.112Z,10.90
2018-09-26T05:43:57.308Z,11.27
2018-09-26T05:46:26.226Z,10.70
2018-09-26T05:48:55.585Z,10.83
2018-09-26T05:51:25.800Z,10.47
2018-09-26T05:53:54.619Z,11.30
2018-09-26T05:56:23.610Z,14.00
2018-09-26T05:58:52.780Z,12.53
2018-09-26T06:01:22.829Z,10.37
2018-09-26T06:03:51.559Z,10.23
2018-09-26T06:06:20.523Z,10.43
2018-09-26T06:08:49.638Z,10.90
2018-09-26T06:11:18.659Z,10.40
2018-09-26T06:13:47.782Z,10.10
2018-09-26T06:16:16.550Z,11.27
2018-09-26T06:18:45.579Z,11.50
2018-09-26T06:21:14.701Z,10.23
2018-09-26T06:23:43.487Z,10.53
2018-09-26T06:26:12.280Z,11.20
2018-09-26T06:28:41.046Z,10.60
2018-09-26T06:31:09.829Z,10.53
2018-09-26T06:33:39.529Z,10.50
2018-09-26T06:36:08.732Z,10.30
2018-09-26T06:38:37.507Z,10.43
2018-09-26T06:41:06.354Z,10.60
2018-09-26T06:43:35.208Z,11.03
2018-09-26T06:46:06.167Z,10.53
2018-09-26T06:48:36.896Z,10.50
2018-09-26T06:51:05.804Z,10.53
2018-09-26T06:53:34.916Z,10.17
2018-09-26T06:56:04.291Z,10.23
2018-09-26T06:58:33.225Z,10.00
2018-09-26T07:01:02.648Z,10.30
2018-09-26T07:03:31.582Z,9.50
2018-09-26T07:06:00.402Z,10.00
2018-09-26T07:08:29.878Z,9.90
2018-09-26T07:10:59.183Z,9.60
2018-09-26T07:13:28.314Z,10.13
2018-09-26T07:15:57.111Z,10.00
2018-09-26T07:18:25.910Z,9.90
2018-09-26T07:20:54.718Z,10.37
2018-09-26T07:23:23.533Z,10.50
2018-09-26T07:25:52.318Z,9.47
2018-09-26T07:28:21.212Z,10.63
2018-09-26T07:30:50.616Z,10.27
2018-09-26T07:33:21.848Z,10.00
2018-09-26T07:35:51.469Z,10.23
2018-09-26T07:38:21.279Z,9.90
2018-09-26T07:40:51.227Z,10.33
2018-09-26T07:43:20.487Z,9.87
2018-09-26T07:45:49.896Z,9.90
2018-09-26T07:48:18.850Z,9.77
2018-09-26T07:50:47.748Z,9.67
2018-09-26T07:53:17.068Z,10.03
2018-09-26T07:55:45.892Z,9.53
2018-09-26T07:58:14.956Z,9.60
2018-09-26T08:00:44.444Z,9.43
2018-09-26T08:03:13.193Z,9.53
2018-09-26T08:05:42.354Z,9.60
2018-09-26T08:08:11.264Z,9.20
2018-09-26T08:10:46.405Z,9.23
2018-09-26T08:13:15.176Z,9.50
2018-09-26T08:15:43.983Z,9.90
2018-09-26T08:18:13.126Z,10.07
2018-09-26T08:20:42.256Z,9.80
2018-09-26T08:23:11.353Z,8.93
2018-09-26T08:25:40.418Z,9.13
2018-09-26T08:28:09.434Z,10.00
2018-09-26T08:30:38.517Z,9.60
2018-09-26T08:33:07.371Z,9.70
2018-09-26T08:35:36.116Z,9.30
2018-09-26T08:38:05.213Z,9.50
2018-09-26T08:40:33.937Z,9.97
2018-09-26T08:43:03.030Z,10.00
2018-09-26T08:45:32.143Z,9.37
2018-09-26T08:48:00.869Z,9.70
2018-09-26T08:50:30.075Z,9.63
2018-09-26T08:52:58.819Z,9.10
2018-09-26T08:55:27.651Z,8.80
2018-09-26T08:57:56.766Z,9.40
2018-09-26T09:00:30.552Z,9.73
2018-09-26T09:02:59.281Z,8.83
2018-09-26T09:05:28.746Z,8.97
2018-09-26T09:07:57.586Z,9.33
2018-09-26T09:10:26.476Z,9.23
2018-09-26T09:12:55.392Z,9.80
2018-09-26T09:15:24.573Z,9.10
2018-09-26T09:17:53.685Z,8.50
2018-09-26T09:20:22.786Z,9.00
2018-09-26T09:22:51.571Z,8.70
2018-09-26T09:25:20.412Z,8.60
2018-09-26T09:27:49.280Z,8.90
2018-09-26T09:30:18.371Z,8.50
2018-09-26T09:32:47.301Z,8.90
2018-09-26T09:35:16.590Z,8.27
2018-09-26T09:37:45.354Z,8.30
2018-09-26T09:40:14.366Z,8.40
2018-09-26T09:42:43.666Z,8.83
2018-09-26T09:45:12.479Z,8.73
2018-09-26T09:47:41.500Z,8.40
2018-09-26T09:50:10.272Z,9.40
2018-09-26T09:52:39.288Z,9.37
2018-09-26T09:55:08.204Z,8.77
2018-09-26T09:57:37.059Z,8.40
2018-09-26T10:00:05.924Z,8.43
2018-09-26T10:02:34.908Z,8.63
2018-09-26T10:05:03.636Z,8.50
2018-09-26T10:07:33.222Z,8.50
2018-09-26T10:10:01.953Z,8.83
2018-09-26T10:12:30.955Z,8.50
2018-09-26T10:14:59.850Z,8.80
2018-09-26T10:17:29.291Z,8.73
2018-09-26T10:19:58.085Z,8.90
2018-09-26T10:22:27.470Z,8.30
2018-09-26T10:24:57.423Z,9.00
2018-09-26T10:27:26.068Z,8.50
2018-09-26T10:29:54.833Z,8.20
2018-09-26T10:32:23.702Z,9.10
2018-09-26T10:34:52.467Z,8.13
2018-09-26T10:37:21.303Z,9.10
2018-09-26T10:39:50.069Z,8.40
2018-09-26T10:42:18.929Z,8.70
2018-09-26T10:44:48.020Z,8.87
2018-09-26T10:47:17.398Z,8.70
2018-09-26T10:49:46.754Z,8.57
2018-09-26T10:52:15.879Z,8.87
2018-09-26T10:54:45.385Z,8.60
2018-09-26T10:57:14.462Z,8.33
2018-09-26T10:59:43.278Z,8.40
2018-09-26T11:02:12.179Z,8.77
2018-09-26T11:04:40.949Z,8.30
2018-09-26T11:07:10.175Z,9.70
2018-09-26T11:09:39.323Z,8.97
2018-09-26T11:12:08.486Z,8.60
2018-09-26T11:14:37.330Z,8.60
2018-09-26T11:17:06.478Z,8.57
2018-09-26T11:19:35.370Z,8.50
2018-09-26T11:22:04.775Z,8.53
2018-09-26T11:24:33.889Z,8.33
2018-09-26T11:27:02.919Z,8.67
2018-09-26T11:29:31.883Z,8.60
2018-09-26T11:32:00.714Z,7.90
2018-09-26T11:34:29.461Z,8.47
2018-09-26T11:36:58.689Z,8.83
2018-09-26T11:39:27.482Z,8.20
2018-09-26T11:41:56.319Z,8.33
2018-09-26T11:44:25.779Z,8.50
2018-09-26T11:46:55.674Z,8.50
2018-09-26T11:49:25.949Z,8.90
2018-09-26T11:51:54.849Z,7.97
2018-09-26T11:54:24.220Z,8.20
2018-09-26T11:56:53.189Z,8.20
2018-09-26T11:59:22.050Z,8.57
2018-09-26T12:01:50.991Z,8.43
2018-09-26T12:04:20.553Z,8.60
2018-09-26T12:06:49.312Z,8.10
2018-09-26T12:09:18.264Z,8.37
2018-09-26T12:11:47.286Z,7.80
2018-09-26T12:14:16.124Z,8.27
2018-09-26T12:16:44.955Z,8.50
2018-09-26T12:19:14.351Z,8.30
2018-09-26T12:21:43.153Z,8.47
2018-09-26T12:24:12.334Z,8.50
2018-09-26T12:26:41.197Z,8.70
2018-09-26T12:29:10.078Z,8.20
2018-09-26T12:31:39.156Z,8.30
2018-09-26T12:34:08.226Z,7.90
2018-09-26T12:36:36.991Z,8.73
2018-09-26T12:39:08.944Z,8.40
2018-09-26T12:41:37.771Z,8.37
2018-09-26T12:44:07.557Z,8.30
2018-09-26T12:46:36.324Z,8.33
2018-09-26T12:49:05.224Z,8.20
2018-09-26T12:51:34.695Z,8.47
2018-09-26T12:54:03.541Z,8.20
2018-09-26T12:56:32.516Z,8.13
2018-09-26T12:59:03.044Z,8.47
2018-09-26T13:01:31.988Z,8.37
2018-09-26T13:04:00.866Z,8.67
2018-09-26T13:06:29.796Z,8.50
2018-09-26T13:08:58.712Z,8.50
2018-09-26T13:11:28.110Z,8.50
2018-09-26T13:13:57.072Z,8.63
2018-09-26T13:16:26.408Z,8.53
2018-09-26T13:18:55.372Z,8.30
2018-09-26T13:21:24.556Z,8.70
2018-09-26T13:23:53.379Z,8.27
2018-09-26T13:26:22.352Z,8.40
2018-09-26T13:28:51.311Z,8.43
2018-09-26T13:31:20.330Z,8.60
2018-09-26T13:33:49.153Z,7.77
2018-09-26T13:36:18.070Z,8.40
2018-09-26T13:38:46.911Z,8.30
2018-09-26T13:41:16.103Z,8.43
2018-09-26T13:43:44.970Z,8.37
2018-09-26T13:46:13.962Z,8.70
2018-09-26T13:48:43.160Z,8.67
2018-09-26T13:51:11.898Z,8.47
2018-09-26T13:53:40.888Z,8.30
2018-09-26T13:56:09.725Z,8.67
2018-09-26T13:58:38.901Z,8.20
2018-09-26T14:01:08.301Z,8.30
2018-09-26T14:03:37.394Z,8.70
2018-09-26T14:06:06.819Z,8.77
2018-09-26T14:08:35.785Z,8.77
2018-09-26T14:11:04.526Z,8.43
2018-09-26T14:13:33.465Z,8.60
2018-09-26T14:16:02.361Z,8.53
2018-09-26T14:18:31.949Z,8.70
2018-09-26T14:21:01.241Z,8.50
2018-09-26T14:23:30.537Z,8.13
2018-09-26T14:25:59.677Z,8.50
2018-09-26T14:28:28.973Z,8.50
2018-09-26T14:30:57.874Z,8.63
2018-09-26T14:33:26.824Z,8.80
2018-09-26T14:35:56.459Z,8.60
2018-09-26T14:38:25.506Z,8.60
2018-09-26T14:40:54.433Z,8.70
2018-09-26T14:43:23.509Z,8.57
2018-09-26T14:45:52.356Z,8.47
2018-09-26T14:48:22.330Z,8.27
2018-09-26T14:50:51.168Z,8.10
2018-09-26T14:53:20.299Z,8.40
2018-09-26T14:55:49.332Z,8.50
2018-09-26T14:58:18.257Z,8.50
2018-09-26T15:00:47.524Z,8.97
2018-09-26T15:03:17.940Z,8.70
2018-09-26T15:05:47.035Z,8.80
2018-09-26T15:08:16.897Z,8.10
2018-09-26T15:10:46.784Z,8.10
2018-09-26T15:13:15.955Z,8.40
2018-09-26T15:15:45.075Z,8.70
2018-09-26T15:18:13.897Z,8.43
2018-09-26T15:20:42.684Z,8.30
2018-09-26T15:23:11.529Z,7.90
2018-09-26T15:25:40.628Z,8.33
2018-09-26T15:28:09.846Z,8.57
2018-09-26T15:30:38.649Z,7.80
2018-09-26T15:33:07.738Z,8.40
2018-09-26T15:35:36.590Z,8.50
2018-09-26T15:38:05.511Z,8.83
2018-09-26T15:40:34.740Z,8.53
2018-09-26T15:43:03.571Z,9.00
2018-09-26T15:45:32.528Z,8.37
2018-09-26T15:48:01.366Z,8.77
2018-09-26T15:50:30.144Z,8.80
2018-09-26T15:52:59.370Z,9.00
2018-09-26T15:55:28.193Z,8.50
2018-09-26T15:57:57.281Z,8.93
2018-09-26T16:00:26.282Z,9.00
2018-09-26T16:02:54.997Z,8.10
2018-09-26T16:05:24.175Z,8.40
2018-09-26T16:07:53.585Z,8.30
2018-09-26T16:10:22.415Z,8.43
2018-09-26T16:12:52.267Z,8.30
2018-09-26T16:15:21.098Z,8.40
2018-09-26T16:17:50.025Z,9.17
2018-09-26T16:20:19.767Z,9.17
2018-09-26T16:22:49.076Z,8.90
2018-09-26T16:25:18.178Z,8.53
2018-09-26T16:27:47.022Z,9.07
2018-09-26T16:30:15.752Z,8.17
2018-09-26T16:32:44.824Z,8.70
2018-09-26T16:35:13.985Z,8.50
2018-09-26T16:37:43.245Z,8.43
2018-09-26T16:40:12.569Z,8.03
2018-09-26T16:42:41.482Z,8.57
2018-09-26T16:45:10.893Z,8.57
2018-09-26T16:47:40.472Z,8.93
2018-09-26T16:50:09.798Z,8.50
2018-09-26T16:52:38.619Z,8.90
2018-09-26T16:55:07.552Z,8.70
2018-09-26T16:57:37.042Z,8.73
2018-09-26T17:00:06.025Z,9.03
2018-09-26T17:02:34.829Z,8.80
2018-09-26T17:05:03.901Z,8.90
2018-09-26T17:07:32.731Z,8.20
2018-09-26T17:10:01.525Z,9.27
2018-09-26T17:12:30.306Z,8.73
2018-09-26T17:14:59.509Z,8.70
2018-09-26T17:17:28.376Z,8.50
2018-09-26T17:19:57.192Z,8.63
2018-09-26T17:22:26.089Z,9.13
2018-09-26T17:24:55.053Z,8.77
2018-09-26T17:27:24.168Z,9.00
2018-09-26T17:29:52.974Z,9.50
2018-09-26T17:32:22.279Z,8.70
2018-09-26T17:34:51.407Z,9.00
2018-09-26T17:37:20.450Z,9.13
2018-09-26T17:39:49.279Z,9.40
2018-09-26T17:42:18.405Z,8.90
2018-09-26T17:44:47.371Z,8.63
2018-09-26T17:47:16.243Z,8.87
2018-09-26T17:49:45.328Z,10.50
2018-09-26T17:52:14.335Z,9.20
2018-09-26T17:54:43.488Z,9.10
2018-09-26T17:57:12.363Z,8.90
2018-09-26T17:59:41.801Z,9.07
2018-09-26T18:02:11.134Z,9.33
2018-09-26T18:04:40.320Z,8.80
2018-09-26T18:07:09.643Z,8.20
2018-09-26T18:09:38.457Z,8.70
2018-09-26T18:12:06.874Z,8.70
2018-09-26T18:14:36.194Z,9.80
2018-09-26T18:17:05.516Z,8.73
2018-09-26T18:19:34.509Z,8.30
2018-09-26T18:22:03.768Z,8.67
2018-09-26T18:24:32.973Z,8.87
2018-09-26T18:27:01.893Z,9.00
2018-09-26T18:29:30.696Z,8.97
2018-09-26T18:31:59.643Z,8.90
2018-09-26T18:34:28.523Z,9.50
2018-09-26T18:36:58.180Z,9.10
2018-09-26T18:39:27.067Z,8.53
2018-09-26T18:41:56.067Z,8.30
2018-09-26T18:44:25.020Z,8.50
2018-09-26T18:46:54.014Z,8.90
2018-09-26T18:49:22.839Z,8.93
2018-09-26T18:51:52.123Z,8.03
2018-09-26T18:54:20.969Z,8.77
2018-09-26T18:56:49.928Z,8.60
2018-09-26T18:59:19.063Z,8.70
2018-09-26T19:01:48.075Z,8.97
2018-09-26T19:04:17.223Z,8.77
2018-09-26T19:06:46.399Z,8.30
2018-09-26T19:09:15.780Z,8.17
2018-09-26T19:11:44.894Z,9.00
2018-09-26T19:14:13.809Z,8.50
2018-09-26T19:16:43.160Z,8.80
2018-09-26T19:19:12.304Z,8.10
2018-09-26T19:21:41.042Z,8.77
2018-09-26T19:24:10.432Z,8.47
2018-09-26T19:26:39.264Z,9.10
2018-09-26T19:29:08.059Z,8.20
2018-09-26T19:31:36.887Z,8.37
2018-09-26T19:34:06.334Z,8.30
2018-09-26T19:36:36.027Z,8.50
2018-09-26T19:39:07.399Z,8.40
2018-09-26T19:41:36.606Z,8.67
2018-09-26T19:44:05.566Z,8.90
2018-09-26T19:46:34.588Z,8.10
2018-09-26T19:49:03.998Z,8.63
2018-09-26T19:51:33.010Z,8.63
2018-09-26T19:54:02.235Z,8.67
2018-09-26T19:56:31.485Z,8.60
2018-09-26T19:59:06.988Z,8.33
2018-09-26T20:01:36.818Z,8.50
2018-09-26T20:04:05.959Z,8.10
2018-09-26T20:06:35.091Z,8.63
2018-09-26T20:09:04.139Z,8.60
2018-09-26T20:11:33.175Z,9.30
2018-09-26T20:14:02.170Z,8.83
2018-09-26T20:16:31.078Z,8.60
2018-09-26T20:18:59.927Z,8.47
2018-09-26T20:21:28.738Z,8.37
2018-09-26T20:23:57.962Z,8.60
2018-09-26T20:26:26.987Z,8.90
2018-09-26T20:28:56.124Z,8.60
2018-09-26T20:31:25.291Z,8.70
2018-09-26T20:33:54.400Z,8.43
2018-09-26T20:36:23.333Z,9.30
2018-09-26T20:38:52.710Z,8.83
2018-09-26T20:41:22.080Z,8.80
2018-09-26T20:43:51.193Z,9.00
2018-09-26T20:46:20.133Z,8.23
2018-09-26T20:48:49.018Z,8.90
2018-09-26T20:51:17.990Z,8.50
2018-09-26T20:53:47.181Z,8.40
2018-09-26T20:56:16.181Z,8.83
2018-09-26T20:58:45.232Z,9.00
2018-09-26T21:01:14.186Z,8.53
2018-09-26T21:03:43.126Z,8.40
2018-09-26T21:06:12.142Z,8.20
2018-09-26T21:08:41.198Z,8.50
2018-09-26T21:11:11.300Z,9.10
2018-09-26T21:13:40.632Z,8.60
2018-09-26T21:16:09.571Z,9.07
2018-09-26T21:18:38.691Z,8.60
2018-09-26T21:21:07.801Z,8.53
2018-09-26T21:23:37.067Z,8.40
2018-09-26T21:26:06.283Z,8.57
2018-09-26T21:28:35.035Z,8.40
2018-09-26T21:31:04.049Z,8.70
2018-09-26T21:33:32.849Z,8.57
2018-09-26T21:36:02.460Z,8.37
2018-09-26T21:38:31.757Z,8.30
2018-09-26T21:41:01.245Z,9.07
2018-09-26T21:43:30.502Z,8.67
2018-09-26T21:45:59.467Z,8.40
2018-09-26T21:48:28.675Z,8.50
2018-09-26T21:50:57.622Z,8.60
2018-09-26T21:53:26.756Z,8.10
2018-09-26T21:55:55.629Z,8.47
2018-09-26T21:58:24.522Z,8.87
2018-09-26T22:00:58.669Z,8.83
2018-09-26T22:03:27.867Z,8.57
2018-09-26T22:05:57.014Z,8.70
2018-09-26T22:08:25.891Z,8.40
2018-09-26T22:10:55.464Z,8.87
2018-09-26T22:13:24.804Z,8.60
2018-09-26T22:15:53.746Z,9.27
2018-09-26T22:18:22.544Z,8.60
2018-09-26T22:20:51.298Z,8.27
2018-09-26T22:23:20.108Z,8.47
2018-09-26T22:25:48.877Z,8.73
2018-09-26T22:28:17.673Z,9.37
2018-09-26T22:30:46.492Z,8.80
2018-09-26T22:33:15.552Z,8.80
2018-09-26T22:35:44.661Z,9.10
2018-09-26T22:38:13.705Z,8.80
2018-09-26T22:40:42.432Z,8.80
2018-09-26T22:43:11.220Z,8.50
2018-09-26T22:45:40.322Z,8.47
2018-09-26T22:48:09.247Z,8.97
2018-09-26T22:50:38.309Z,8.70
2018-09-26T22:53:07.582Z,8.50
2018-09-26T22:55:36.909Z,8.93
2018-09-26T22:58:06.216Z,8.83
2018-09-26T23:00:35.618Z,9.20
2018-09-26T23:03:05.752Z,8.57
2018-09-26T23:05:34.598Z,8.77
2018-09-26T23:08:03.403Z,8.57
2018-09-26T23:10:32.714Z,8.60
2018-09-26T23:13:01.505Z,8.67
2018-09-26T23:15:30.249Z,9.00
2018-09-26T23:17:59.402Z,9.50
2018-09-26T23:20:29.187Z,8.80
2018-09-26T23:22:58.157Z,8.87
2018-09-26T23:25:26.870Z,8.73
2018-09-26T23:27:55.880Z,8.50
2018-09-26T23:30:24.598Z,8.77
2018-09-26T23:32:53.319Z,8.73
2018-09-26T23:35:22.069Z,8.60
2018-09-26T23:37:51.011Z,8.90
2018-09-26T23:40:19.762Z,9.03
2018-09-26T23:42:48.534Z,9.00
2018-09-26T23:45:18.020Z,9.70
2018-09-26T23:47:47.647Z,8.80
2018-09-26T23:50:16.763Z,8.73
2018-09-26T23:52:45.467Z,9.53
2018-09-26T23:55:14.511Z,8.63
2018-09-26T23:57:43.446Z,8.90
